LPLA METAR and TAF weather

Enter ICAO airport designator
Station Type Date Time Source
LPLA METAR 2019/04/19 10:00 UTC NOAA

LPLA 191000Z /////KT 9999 FEW012 20/16 Q1025


Station Type Date Time Source
LPLA Decoded METAR 2019/04/19 10:00 UTC NOAA

Lajes Acores , Portugal (LPLA) 38-46N 027-06W 54M
Apr 19, 2019 - 06:00 AM EDT / 2019.04.19 1000 UTC
Visibility: greater than 7 mile(s):0
Sky conditions: mostly clear
Temperature: 68 F (20 C)
Dew Point: 60 F (16 C)
Relative Humidity: 77%
Pressure (altimeter): 30.27 in. Hg (1025 hPa)
ob: LPLA 191000Z /////KT 9999 FEW012 20/16 Q1025
cycle: 10

Station Type Date Time Source
LPLA TAF 2019/04/19 06:18 UTC NOAA

TAF LPLA 190505Z 1906/2006 21005KT 9999 FEW015 PROB30
TEMPO 1906/1912 VRB05KT 5000 -RADZ BR SCT002 BKN010
BECMG 1918/1920 VRB05KT

Example: see airport list